Time,TemperatureF,DewpointF,PressureIn,WindDirection,WindDirectionDegrees,WindSpeedMPH,WindSpeedGustMPH,Humidity,HourlyPrecipIn,Conditions,Clouds,dailyrainin,SoftwareType,DateUTC
2013-11-28 00:01:00,29.3,16.7,29.47,NW,308,0.0,0.0,59,0.00,RA,,0.00,WeatherDisplay:10.37,2013-11-28 05:01:00,
2013-11-28 00:06:00,29.3,16.7,29.47,NNE,27,2.3,2.3,59,0.00,RA,,0.00,WeatherDisplay:10.37,2013-11-28 05:06:00,
2013-11-28 00:11:00,29.3,16.7,29.48,NNE,27,2.3,2.3,59,0.00,CLR,,0.00,WeatherDisplay:10.37,2013-11-28 05:11:00,
2013-11-28 00:16:00,29.3,16.7,29.48,North,1,2.3,0.0,59,0.00,CLR,,0.00,WeatherDisplay:10.37,2013-11-28 05:16:00,
2013-11-28 00:21:00,29.3,16.7,29.48,North,0,0.0,0.0,59,0.00,CLR,,0.00,WeatherDisplay:10.37,2013-11-28 05:21:00,
2013-11-28 00:26:00,29.3,16.7,29.48,North,0,0.0,0.0,59,0.00,CLR,,0.00,WeatherDisplay:10.37,2013-11-28 05:26:00,
2013-11-28 00:31:00,29.1,15.3,29.48,North,359,3.0,3.0,56,0.00,CLR,,0.00,WeatherDisplay:10.37,2013-11-28 05:31:00,
2013-11-28 00:36:00,29.1,15.3,29.48,North,359,3.5,3.5,56,0.00,CLR,,0.00,WeatherDisplay:10.37,2013-11-28 05:36:00,
2013-11-28 00:41:00,29.1,15.3,29.50,North,359,3.5,3.5,56,0.00,CLR,,0.00,WeatherDisplay:10.37,2013-11-28 05:41:00,
2013-11-28 00:46:00,29.1,15.3,29.50,North,1,0.0,0.0,56,0.00,CLR,,0.00,WeatherDisplay:10.37,2013-11-28 05:46:00,
2013-11-28 00:51:00,29.1,15.3,29.50,North,0,0.0,0.0,56,0.00,CLR,,0.00,WeatherDisplay:10.37,2013-11-28 05:51:00,
2013-11-28 00:56:00,29.1,15.3,29.51,North,0,0.0,0.0,56,0.00,CLR,,0.00,WeatherDisplay:10.37,2013-11-28 05:56:00,
2013-11-28 01:01:00,29.1,15.3,29.51,NW,325,1.1,1.1,56,0.00,CLR,,0.00,WeatherDisplay:10.37,2013-11-28 06:01:00,
2013-11-28 01:06:00,29.1,15.3,29.51,NW,325,1.1,1.1,56,0.00,CLR,,0.00,WeatherDisplay:10.37,2013-11-28 06:06:00,
2013-11-28 01:11:00,29.1,15.3,29.51,NNE,14,1.1,0.0,56,0.00,CLR,,0.00,WeatherDisplay:10.37,2013-11-28 06:11:00,
2013-11-28 01:16:00,29.1,15.3,29.51,North,0,0.0,0.0,56,0.00,CLR,,0.00,WeatherDisplay:10.37,2013-11-28 06:16:00,
2013-11-28 01:21:00,29.1,15.3,29.51,North,0,0.0,0.0,56,0.00,CLR,,0.00,WeatherDisplay:10.37,2013-11-28 06:21:00,
2013-11-28 01:26:00,29.1,15.3,29.52,NNW,328,1.1,1.1,56,0.00,CLR,,0.00,WeatherDisplay:10.37,2013-11-28 06:26:00,
2013-11-28 01:31:00,28.2,14.5,29.52,North,0,1.1,1.1,56,0.00,CLR,,0.00,WeatherDisplay:10.37,2013-11-28 06:31:00,
2013-11-28 01:36:00,28.2,14.5,29.52,North,0,1.1,1.1,56,0.00,CLR,,0.00,WeatherDisplay:10.37,2013-11-28 06:36:00,
2013-11-28 01:41:00,28.2,14.5,29.52,NNW,339,3.5,3.5,56,0.00,CLR,,0.00,WeatherDisplay:10.37,2013-11-28 06:41:00,
2013-11-28 01:46:00,28.2,14.5,29.52,NNW,339,3.5,3.5,56,0.00,CLR,,0.00,WeatherDisplay:10.37,2013-11-28 06:46:00,
2013-11-28 01:51:00,28.2,14.5,29.52,North,1,0.0,0.0,56,0.00,CLR,,0.00,WeatherDisplay:10.37,2013-11-28 06:51:00,
2013-11-28 01:56:00,28.2,14.5,29.53,North,0,0.0,0.0,56,0.00,CLR,,0.00,WeatherDisplay:10.37,2013-11-28 06:56:00,
2013-11-28 02:01:00,28.2,14.5,29.53,North,0,0.0,0.0,56,0.00,CLR,,0.00,WeatherDisplay:10.37,2013-11-28 07:01:00,
2013-11-28 02:06:00,27.5,13.8,29.53,North,352,0.0,0.0,56,0.00,CLR,,0.00,WeatherDisplay:10.37,2013-11-28 07:06:00,
2013-11-28 02:11:00,27.3,13.7,29.53,North,353,1.1,1.1,56,0.00,CLR,,0.00,WeatherDisplay:10.37,2013-11-28 07:11:00,
2013-11-28 02:16:00,27.2,13.6,29.53,North,354,0.0,0.0,56,0.00,CLR,,0.00,WeatherDisplay:10.37,2013-11-28 07:16:00,
2013-11-28 02:21:00,27.0,14.9,29.53,WNW,299,0.0,0.0,60,0.00,CLR,,0.00,WeatherDisplay:10.37,2013-11-28 07:21:00,
2013-11-28 02:26:00,27.0,14.9,29.54,NNW,343,0.0,0.0,60,0.00,CLR,,0.00,WeatherDisplay:10.37,2013-11-28 07:26:00,
2013-11-28 02:31:00,26.9,14.9,29.54,North,349,2.3,2.3,60,0.00,CLR,,0.00,WeatherDisplay:10.37,2013-11-28 07:31:00,
2013-11-28 02:36:00,26.7,15.4,29.54,North,359,1.0,1.0,62,0.00,CLR,,0.00,WeatherDisplay:10.37,2013-11-28 07:36:00,
2013-11-28 02:41:00,26.6,15.3,29.54,North,0,0.0,0.0,62,0.00,CLR,,0.00,WeatherDisplay:10.37,2013-11-28 07:41:00,
2013-11-28 02:46:00,26.6,15.3,29.54,North,0,6.9,6.9,62,0.00,CLR,,0.00,WeatherDisplay:10.37,2013-11-28 07:46:00,
2013-11-28 02:51:00,26.6,15.3,29.54,North,353,2.3,2.3,62,0.00,CLR,,0.00,WeatherDisplay:10.37,2013-11-28 07:51:00,
2013-11-28 02:56:00,26.6,15.3,29.53,NNW,329,0.0,0.0,62,0.00,CLR,,0.00,WeatherDisplay:10.37,2013-11-28 07:56:00,
2013-11-28 03:02:00,26.4,15.1,29.53,NNW,347,3.5,3.5,62,0.00,CLR,,0.00,WeatherDisplay:10.37,2013-11-28 08:02:00,
2013-11-28 03:07:00,26.6,14.9,29.53,North,356,5.8,6.0,61,0.00,CLR,,0.00,WeatherDisplay:10.37,2013-11-28 08:07:00,
2013-11-28 03:12:00,26.7,14.7,29.54,North,359,4.6,4.6,60,0.00,CLR,,0.00,WeatherDisplay:10.37,2013-11-28 08:12:00,
2013-11-28 03:17:00,26.9,14.9,29.54,North,0,8.1,8.1,60,0.00,CLR,,0.00,WeatherDisplay:10.37,2013-11-28 08:17:00,
2013-11-28 03:22:00,26.9,14.5,29.54,North,359,3.5,3.5,59,0.00,CLR,,0.00,WeatherDisplay:10.37,2013-11-28 08:22:00,
2013-11-28 03:27:00,26.9,14.5,29.55,NNW,346,1.1,1.4,59,0.00,CLR,,0.00,WeatherDisplay:10.37,2013-11-28 08:27:00,
2013-11-28 03:32:00,26.7,14.7,29.55,North,352,4.6,4.6,60,0.00,CLR,,0.00,WeatherDisplay:10.37,2013-11-28 08:32:00,
2013-11-28 03:37:00,26.6,14.6,29.55,NW,311,0.0,0.0,60,0.00,CLR,,0.00,WeatherDisplay:10.37,2013-11-28 08:37:00,
2013-11-28 03:42:00,26.6,14.6,29.56,NW,318,0.0,0.0,60,0.00,CLR,,0.00,WeatherDisplay:10.37,2013-11-28 08:42:00,
2013-11-28 03:47:00,26.6,14.6,29.56,NW,318,0.0,0.0,60,0.00,CLR,,0.00,WeatherDisplay:10.37,2013-11-28 08:47:00,
2013-11-28 03:52:00,26.6,14.6,29.56,NNE,14,0.0,0.0,60,0.00,CLR,,0.00,WeatherDisplay:10.37,2013-11-28 08:52:00,
2013-11-28 03:57:00,26.6,14.6,29.57,North,0,0.0,0.0,60,0.00,CLR,,0.00,WeatherDisplay:10.37,2013-11-28 08:57:00,
2013-11-28 04:02:00,26.6,14.6,29.57,North,0,0.0,0.0,60,0.00,CLR,,0.00,WeatherDisplay:10.37,2013-11-28 09:02:00,
2013-11-28 04:07:00,26.6,14.6,29.57,North,0,0.0,0.0,60,0.00,CLR,,0.00,WeatherDisplay:10.37,2013-11-28 09:07:00,
2013-11-28 04:12:00,26.6,14.6,29.58,North,0,0.0,0.0,60,0.00,CLR,,0.00,WeatherDisplay:10.37,2013-11-28 09:12:00,
2013-11-28 04:17:00,26.6,14.6,29.58,North,0,0.0,0.0,60,0.00,CLR,,0.00,WeatherDisplay:10.37,2013-11-28 09:17:00,
2013-11-28 04:22:00,26.6,14.6,29.58,North,0,0.0,0.0,60,0.00,CLR,,0.00,WeatherDisplay:10.37,2013-11-28 09:22:00,
2013-11-28 04:27:00,26.6,14.6,29.59,North,0,0.0,0.0,60,0.00,CLR,,0.00,WeatherDisplay:10.37,2013-11-28 09:27:00,
2013-11-28 04:32:00,26.6,14.6,29.59,North,0,0.0,0.0,60,0.00,CLR,,0.00,WeatherDisplay:10.37,2013-11-28 09:32:00,
2013-11-28 04:37:00,26.6,14.6,29.59,North,0,0.0,0.0,60,0.00,CLR,,0.00,WeatherDisplay:10.37,2013-11-28 09:37:00,
2013-11-28 04:42:00,26.6,14.6,29.60,North,0,0.0,0.0,60,0.00,CLR,,0.00,WeatherDisplay:10.37,2013-11-28 09:42:00,
2013-11-28 04:47:00,26.6,14.6,29.60,North,0,0.0,0.0,60,0.00,CLR,,0.00,WeatherDisplay:10.37,2013-11-28 09:47:00,
2013-11-28 04:52:00,26.6,14.6,29.60,North,0,0.0,0.0,60,0.00,CLR,,0.00,WeatherDisplay:10.37,2013-11-28 09:52:00,
2013-11-28 04:57:00,26.6,14.6,29.61,North,0,0.0,0.0,60,0.00,CLR,,0.00,WeatherDisplay:10.37,2013-11-28 09:57:00,
2013-11-28 05:02:00,26.6,14.6,29.61,North,0,0.0,0.0,60,0.00,CLR,,0.00,WeatherDisplay:10.37,2013-11-28 10:02:00,
2013-11-28 05:07:00,26.6,14.6,29.61,North,0,0.0,0.0,60,0.00,CLR,,0.00,WeatherDisplay:10.37,2013-11-28 10:07:00,
2013-11-28 05:12:00,26.6,14.6,29.61,North,0,0.0,0.0,60,0.00,CLR,,0.00,WeatherDisplay:10.37,2013-11-28 10:12:00,
2013-11-28 05:17:00,26.6,14.6,29.61,North,0,0.0,0.0,60,0.00,CLR,,0.00,WeatherDisplay:10.37,2013-11-28 10:17:00,
2013-11-28 05:22:00,26.6,14.6,29.61,North,0,0.0,0.0,60,0.00,CLR,,0.00,WeatherDisplay:10.37,2013-11-28 10:22:00,
2013-11-28 05:27:00,26.6,14.6,29.61,North,0,0.0,0.0,60,0.00,CLR,,0.00,WeatherDisplay:10.37,2013-11-28 10:27:00,
2013-11-28 05:32:00,26.6,14.6,29.61,North,0,0.0,0.0,60,0.00,CLR,,0.00,WeatherDisplay:10.37,2013-11-28 10:32:00,
2013-11-28 05:37:00,26.6,14.6,29.61,North,0,0.0,0.0,60,0.00,CLR,,0.00,WeatherDisplay:10.37,2013-11-28 10:37:00,
2013-11-28 05:42:00,26.6,14.6,29.62,North,0,0.0,0.0,60,0.00,CLR,,0.00,WeatherDisplay:10.37,2013-11-28 10:42:00,
2013-11-28 05:47:00,26.6,14.6,29.62,North,0,0.0,0.0,60,0.00,CLR,,0.00,WeatherDisplay:10.37,2013-11-28 10:47:00,
2013-11-28 05:52:00,26.6,14.6,29.62,North,0,0.0,0.0,60,0.00,CLR,,0.00,WeatherDisplay:10.37,2013-11-28 10:52:00,
2013-11-28 05:57:00,26.6,14.6,29.63,North,0,0.0,0.0,60,0.00,CLR,,0.00,WeatherDisplay:10.37,2013-11-28 10:57:00,
2013-11-28 06:02:00,26.6,14.6,29.63,North,0,0.0,0.0,60,0.00,CLR,,0.00,WeatherDisplay:10.37,2013-11-28 11:02:00,
2013-11-28 06:07:00,26.6,14.6,29.63,North,0,0.0,0.0,60,0.00,CLR,,0.00,WeatherDisplay:10.37,2013-11-28 11:07:00,
2013-11-28 06:12:00,26.6,14.6,29.64,North,0,0.0,0.0,60,0.00,CLR,,0.00,WeatherDisplay:10.37,2013-11-28 11:12:00,